Franzen, Wisconsin
Current Conditions -  °F | °C
As of 4:35 AM on Friday 24 Oct 2014 (Local Time) from KAIG Reporting Station
Moderate Fog Moderate Fog  
Wind Chill: 39°   Ceiling: 300
Heat Index: 43°   Visibility: 0.5mi
Dew Point: 43°   Wind: 6mph
Humidity: 100%   Direction: 280°W
Pressure: 30.01"   Gusts: NA
Location:  44.8179°N, 89.172°W
Report Text: KAIG 240935Z AUTO 28005KT 1/2SM FG OVC003 06/06 A3001 RMK AO2 T00600060
Loading
Personal Weather Stations






























Interactive Weather Map New forecast layout! Learn more

10-Day Weather Forecast

Advertisements
Track Severe Weather on mobile